sensor_id;sensor_type;location;lat;lon;timestamp;pressure;altitude;pressure_sealevel;temperature;humidity
58785;BME280;44557;51.862;19.378;2023-05-21T00:01:13;99921.34;;;18.28;62.85
58785;BME280;44557;51.862;19.378;2023-05-21T00:03:16;99922.55;;;18.23;63.12
58785;BME280;44557;51.862;19.378;2023-05-21T00:05:18;99917.52;;;18.30;62.80
58785;BME280;44557;51.862;19.378;2023-05-21T00:07:21;99917.61;;;18.23;62.65
58785;BME280;44557;51.862;19.378;2023-05-21T00:09:23;99923.17;;;18.07;63.33
58785;BME280;44557;51.862;19.378;2023-05-21T00:11:25;99924.05;;;18.21;62.96
58785;BME280;44557;51.862;19.378;2023-05-21T00:13:26;99921.11;;;18.14;62.87
58785;BME280;44557;51.862;19.378;2023-05-21T00:15:28;99919.66;;;18.12;63.21
58785;BME280;44557;51.862;19.378;2023-05-21T00:17:29;99918.07;;;18.04;63.34
58785;BME280;44557;51.862;19.378;2023-05-21T00:19:31;99918.63;;;18.04;63.54
58785;BME280;44557;51.862;19.378;2023-05-21T00:21:33;99911.77;;;17.97;63.91
58785;BME280;44557;51.862;19.378;2023-05-21T00:23:35;99913.95;;;17.98;63.90
58785;BME280;44557;51.862;19.378;2023-05-21T00:25:37;99911.02;;;17.92;63.89
58785;BME280;44557;51.862;19.378;2023-05-21T00:27:39;99913.63;;;17.91;63.91
58785;BME280;44557;51.862;19.378;2023-05-21T00:29:41;99912.98;;;17.82;64.28
58785;BME280;44557;51.862;19.378;2023-05-21T00:31:42;99910.03;;;17.89;64.39
58785;BME280;44557;51.862;19.378;2023-05-21T00:33:44;99910.23;;;17.72;64.82
58785;BME280;44557;51.862;19.378;2023-05-21T00:35:45;99911.64;;;17.64;65.09
58785;BME280;44557;51.862;19.378;2023-05-21T00:37:47;99914.11;;;17.70;65.20
58785;BME280;44557;51.862;19.378;2023-05-21T00:39:48;99913.39;;;17.70;64.73
58785;BME280;44557;51.862;19.378;2023-05-21T00:41:50;99918.24;;;17.63;65.27
58785;BME280;44557;51.862;19.378;2023-05-21T00:43:52;99915.19;;;17.55;65.74
58785;BME280;44557;51.862;19.378;2023-05-21T00:45:54;99918.66;;;17.58;65.40
58785;BME280;44557;51.862;19.378;2023-05-21T00:47:56;99918.48;;;17.40;66.17
58785;BME280;44557;51.862;19.378;2023-05-21T00:49:58;99923.70;;;17.67;65.48
58785;BME280;44557;51.862;19.378;2023-05-21T00:52:00;99921.74;;;17.63;65.55
58785;BME280;44557;51.862;19.378;2023-05-21T00:54:02;99920.55;;;17.41;66.70
58785;BME280;44557;51.862;19.378;2023-05-21T00:56:04;99918.91;;;17.24;67.57
58785;BME280;44557;51.862;19.378;2023-05-21T00:58:07;99917.98;;;17.33;66.79
58785;BME280;44557;51.862;19.378;2023-05-21T01:00:09;99917.36;;;17.34;66.87
58785;BME280;44557;51.862;19.378;2023-05-21T01:02:11;99917.19;;;17.33;66.88
58785;BME280;44557;51.862;19.378;2023-05-21T01:04:14;99918.27;;;17.24;67.20
58785;BME280;44557;51.862;19.378;2023-05-21T01:06:17;99915.45;;;17.27;67.00
58785;BME280;44557;51.862;19.378;2023-05-21T01:08:20;99914.98;;;17.11;67.68
58785;BME280;44557;51.862;19.378;2023-05-21T01:10:24;99912.45;;;17.12;67.82
58785;BME280;44557;51.862;19.378;2023-05-21T01:12:26;99908.25;;;17.01;68.54
58785;BME280;44557;51.862;19.378;2023-05-21T01:14:28;99909.58;;;16.99;68.40
58785;BME280;44557;51.862;19.378;2023-05-21T01:16:31;99906.09;;;17.06;68.08
58785;BME280;44557;51.862;19.378;2023-05-21T01:18:34;99905.86;;;17.01;67.90
58785;BME280;44557;51.862;19.378;2023-05-21T01:20:37;99905.96;;;16.87;68.40
58785;BME280;44557;51.862;19.378;2023-05-21T01:22:53;99905.09;;;16.93;68.20
58785;BME280;44557;51.862;19.378;2023-05-21T01:24:55;99903.64;;;17.02;67.76
58785;BME280;44557;51.862;19.378;2023-05-21T01:26:59;99903.84;;;16.88;68.30
58785;BME280;44557;51.862;19.378;2023-05-21T01:29:01;99901.95;;;16.85;68.51
58785;BME280;44557;51.862;19.378;2023-05-21T01:31:13;99898.32;;;16.75;68.74
58785;BME280;44557;51.862;19.378;2023-05-21T01:33:40;99898.06;;;16.81;68.51
58785;BME280;44557;51.862;19.378;2023-05-21T01:35:51;99895.23;;;16.70;68.76
58785;BME280;44557;51.862;19.378;2023-05-21T01:38:02;99898.46;;;16.69;68.61
58785;BME280;44557;51.862;19.378;2023-05-21T01:40:30;99897.27;;;16.65;68.73
58785;BME280;44557;51.862;19.378;2023-05-21T01:42:35;99897.20;;;16.65;68.53
58785;BME280;44557;51.862;19.378;2023-05-21T01:44:39;99897.16;;;16.63;68.90
58785;BME280;44557;51.862;19.378;2023-05-21T01:46:41;99900.05;;;16.50;68.99
58785;BME280;44557;51.862;19.378;2023-05-21T01:48:43;99894.55;;;16.41;69.50
58785;BME280;44557;51.862;19.378;2023-05-21T01:50:45;99895.29;;;16.37;69.46
58785;BME280;44557;51.862;19.378;2023-05-21T01:52:50;99892.52;;;16.55;68.94
58785;BME280;44557;51.862;19.378;2023-05-21T01:54:52;99890.61;;;16.47;69.28
58785;BME280;44557;51.862;19.378;2023-05-21T01:56:55;99887.01;;;16.31;69.49
58785;BME280;44557;51.862;19.378;2023-05-21T01:58:57;99884.23;;;16.46;69.02
58785;BME280;44557;51.862;19.378;2023-05-21T02:00:59;99883.82;;;16.45;68.68
58785;BME280;44557;51.862;19.378;2023-05-21T02:03:01;99885.21;;;16.43;68.31
58785;BME280;44557;51.862;19.378;2023-05-21T02:05:02;99884.05;;;16.44;68.10
58785;BME280;44557;51.862;19.378;2023-05-21T02:07:04;99886.56;;;16.19;69.02
58785;BME280;44557;51.862;19.378;2023-05-21T02:09:07;99884.43;;;16.39;68.02
58785;BME280;44557;51.862;19.378;2023-05-21T02:11:09;99880.54;;;16.39;67.70
58785;BME280;44557;51.862;19.378;2023-05-21T02:13:10;99878.89;;;16.40;67.53
58785;BME280;44557;51.862;19.378;2023-05-21T02:15:12;99875.23;;;16.45;67.35
58785;BME280;44557;51.862;19.378;2023-05-21T02:17:18;99876.02;;;16.40;67.84
58785;BME280;44557;51.862;19.378;2023-05-21T02:19:19;99876.98;;;16.26;68.19
58785;BME280;44557;51.862;19.378;2023-05-21T02:21:21;99872.86;;;16.45;67.00
58785;BME280;44557;51.862;19.378;2023-05-21T02:23:23;99874.41;;;16.38;67.04
58785;BME280;44557;51.862;19.378;2023-05-21T02:25:24;99868.59;;;16.51;66.69
58785;BME280;44557;51.862;19.378;2023-05-21T02:27:26;99872.45;;;16.12;67.71
58785;BME280;44557;51.862;19.378;2023-05-21T02:29:29;99873.75;;;16.13;68.00
58785;BME280;44557;51.862;19.378;2023-05-21T02:31:30;99872.47;;;16.26;67.25
58785;BME280;44557;51.862;19.378;2023-05-21T02:33:32;99869.34;;;16.39;66.78
58785;BME280;44557;51.862;19.378;2023-05-21T02:35:34;99869.30;;;16.18;67.33
58785;BME280;44557;51.862;19.378;2023-05-21T02:37:35;99863.83;;;16.22;67.01
58785;BME280;44557;51.862;19.378;2023-05-21T02:39:38;99863.08;;;16.25;66.78
58785;BME280;44557;51.862;19.378;2023-05-21T02:41:40;99864.15;;;16.23;66.98
58785;BME280;44557;51.862;19.378;2023-05-21T02:43:41;99863.36;;;16.19;67.11
58785;BME280;44557;51.862;19.378;2023-05-21T02:45:43;99863.85;;;16.19;67.01
58785;BME280;44557;51.862;19.378;2023-05-21T02:47:44;99860.20;;;16.24;66.73
58785;BME280;44557;51.862;19.378;2023-05-21T02:49:48;99858.69;;;16.16;66.82
58785;BME280;44557;51.862;19.378;2023-05-21T02:51:50;99858.77;;;16.19;66.62
58785;BME280;44557;51.862;19.378;2023-05-21T02:53:52;99861.74;;;16.17;66.65
58785;BME280;44557;51.862;19.378;2023-05-21T02:55:53;99860.90;;;16.05;66.78
58785;BME280;44557;51.862;19.378;2023-05-21T02:57:56;99861.34;;;16.07;66.65
58785;BME280;44557;51.862;19.378;2023-05-21T02:59:58;99859.77;;;16.12;66.15
58785;BME280;44557;51.862;19.378;2023-05-21T03:01:59;99857.85;;;16.17;65.56
58785;BME280;44557;51.862;19.378;2023-05-21T03:04:01;99855.52;;;16.11;65.53
58785;BME280;44557;51.862;19.378;2023-05-21T03:06:02;99854.09;;;16.01;65.58
58785;BME280;44557;51.862;19.378;2023-05-21T03:08:04;99851.02;;;16.13;64.73
58785;BME280;44557;51.862;19.378;2023-05-21T03:10:06;99848.53;;;16.21;63.76
58785;BME280;44557;51.862;19.378;2023-05-21T03:12:09;99851.32;;;16.21;62.87
58785;BME280;44557;51.862;19.378;2023-05-21T03:14:10;99846.20;;;16.19;62.66
58785;BME280;44557;51.862;19.378;2023-05-21T03:16:12;99843.45;;;16.31;61.10
58785;BME280;44557;51.862;19.378;2023-05-21T03:18:14;99844.68;;;16.28;61.33
58785;BME280;44557;51.862;19.378;2023-05-21T03:20:16;99842.05;;;16.37;60.32
58785;BME280;44557;51.862;19.378;2023-05-21T03:22:19;99844.67;;;16.37;59.78
58785;BME280;44557;51.862;19.378;2023-05-21T03:24:21;99839.77;;;16.38;59.50
58785;BME280;44557;51.862;19.378;2023-05-21T03:26:24;99844.00;;;16.40;58.73
58785;BME280;44557;51.862;19.378;2023-05-21T03:28:27;99844.15;;;16.57;58.08
58785;BME280;44557;51.862;19.378;2023-05-21T03:30:29;99844.38;;;16.62;57.51
58785;BME280;44557;51.862;19.378;2023-05-21T03:32:30;99840.95;;;16.66;57.71
58785;BME280;44557;51.862;19.378;2023-05-21T03:34:34;99841.53;;;16.68;56.95
58785;BME280;44557;51.862;19.378;2023-05-21T03:36:36;99835.85;;;16.71;56.50
58785;BME280;44557;51.862;19.378;2023-05-21T03:38:37;99838.64;;;16.71;56.40
58785;BME280;44557;51.862;19.378;2023-05-21T03:40:39;99840.20;;;16.81;56.37
58785;BME280;44557;51.862;19.378;2023-05-21T03:42:41;99845.19;;;16.79;56.66
58785;BME280;44557;51.862;19.378;2023-05-21T03:44:42;99848.55;;;16.75;57.06
58785;BME280;44557;51.862;19.378;2023-05-21T03:46:44;99847.36;;;16.65;57.88
58785;BME280;44557;51.862;19.378;2023-05-21T03:48:45;99846.02;;;16.71;58.13
58785;BME280;44557;51.862;19.378;2023-05-21T03:50:47;99845.38;;;16.70;58.39
58785;BME280;44557;51.862;19.378;2023-05-21T03:52:49;99847.05;;;16.71;58.37
58785;BME280;44557;51.862;19.378;2023-05-21T03:54:50;99846.54;;;16.63;58.84
58785;BME280;44557;51.862;19.378;2023-05-21T03:56:52;99848.63;;;16.54;59.80
58785;BME280;44557;51.862;19.378;2023-05-21T03:58:53;99844.08;;;16.49;60.32
58785;BME280;44557;51.862;19.378;2023-05-21T04:00:55;99841.95;;;16.59;60.06
58785;BME280;44557;51.862;19.378;2023-05-21T04:02:57;99839.47;;;16.58;60.00
58785;BME280;44557;51.862;19.378;2023-05-21T04:04:59;99843.54;;;16.54;60.61
58785;BME280;44557;51.862;19.378;2023-05-21T04:07:00;99844.13;;;16.61;60.73
58785;BME280;44557;51.862;19.378;2023-05-21T04:09:02;99842.58;;;16.58;61.17
58785;BME280;44557;51.862;19.378;2023-05-21T04:11:05;99840.56;;;16.61;61.03
58785;BME280;44557;51.862;19.378;2023-05-21T04:13:06;99842.73;;;16.53;61.71
58785;BME280;44557;51.862;19.378;2023-05-21T04:15:08;99842.45;;;16.55;61.60
58785;BME280;44557;51.862;19.378;2023-05-21T04:17:10;99841.49;;;16.60;61.56
58785;BME280;44557;51.862;19.378;2023-05-21T04:19:13;99840.58;;;16.63;61.51
58785;BME280;44557;51.862;19.378;2023-05-21T04:21:14;99843.33;;;16.65;61.45
58785;BME280;44557;51.862;19.378;2023-05-21T04:23:16;99842.32;;;16.63;61.72
58785;BME280;44557;51.862;19.378;2023-05-21T04:25:18;99841.28;;;16.62;61.93
58785;BME280;44557;51.862;19.378;2023-05-21T04:27:20;99836.39;;;16.70;61.54
58785;BME280;44557;51.862;19.378;2023-05-21T04:29:25;99834.13;;;16.68;61.63
58785;BME280;44557;51.862;19.378;2023-05-21T04:31:28;99833.05;;;16.76;61.67
58785;BME280;44557;51.862;19.378;2023-05-21T04:33:30;99831.01;;;16.77;61.35
58785;BME280;44557;51.862;19.378;2023-05-21T04:35:31;99826.33;;;16.84;60.85
58785;BME280;44557;51.862;19.378;2023-05-21T04:37:33;99826.28;;;16.92;60.58
58785;BME280;44557;51.862;19.378;2023-05-21T04:39:35;99828.45;;;17.05;59.85
58785;BME280;44557;51.862;19.378;2023-05-21T04:41:37;99827.61;;;17.02;60.09
58785;BME280;44557;51.862;19.378;2023-05-21T04:43:41;99828.11;;;17.03;59.94
58785;BME280;44557;51.862;19.378;2023-05-21T04:45:44;99827.99;;;17.14;60.12
58785;BME280;44557;51.862;19.378;2023-05-21T04:47:45;99830.42;;;17.17;60.01
58785;BME280;44557;51.862;19.378;2023-05-21T04:49:48;99827.08;;;17.17;59.58
58785;BME280;44557;51.862;19.378;2023-05-21T04:51:51;99827.39;;;17.22;59.57
58785;BME280;44557;51.862;19.378;2023-05-21T04:53:53;99826.70;;;17.24;59.51
58785;BME280;44557;51.862;19.378;2023-05-21T04:55:54;99826.50;;;17.27;59.07
58785;BME280;44557;51.862;19.378;2023-05-21T04:57:56;99825.39;;;17.34;58.91
58785;BME280;44557;51.862;19.378;2023-05-21T04:59:58;99821.11;;;17.43;58.58
58785;BME280;44557;51.862;19.378;2023-05-21T05:01:59;99823.50;;;17.44;57.78
58785;BME280;44557;51.862;19.378;2023-05-21T05:04:01;99819.26;;;17.53;58.64
58785;BME280;44557;51.862;19.378;2023-05-21T05:06:03;99823.36;;;17.57;57.66
58785;BME280;44557;51.862;19.378;2023-05-21T05:08:05;99822.77;;;17.61;57.54
58785;BME280;44557;51.862;19.378;2023-05-21T05:10:07;99822.34;;;17.64;56.28
58785;BME280;44557;51.862;19.378;2023-05-21T05:12:09;99821.95;;;17.75;56.23
58785;BME280;44557;51.862;19.378;2023-05-21T05:14:10;99822.35;;;17.74;55.70
58785;BME280;44557;51.862;19.378;2023-05-21T05:16:12;99826.95;;;17.80;55.72
58785;BME280;44557;51.862;19.378;2023-05-21T05:18:14;99822.15;;;17.85;54.95
58785;BME280;44557;51.862;19.378;2023-05-21T05:20:16;99824.13;;;17.84;54.43
58785;BME280;44557;51.862;19.378;2023-05-21T05:22:18;99824.02;;;17.89;53.87
58785;BME280;44557;51.862;19.378;2023-05-21T05:24:20;99824.79;;;17.95;54.01
58785;BME280;44557;51.862;19.378;2023-05-21T05:26:21;99823.41;;;18.02;53.94
58785;BME280;44557;51.862;19.378;2023-05-21T05:28:23;99817.16;;;18.08;53.55
58785;BME280;44557;51.862;19.378;2023-05-21T05:30:24;99819.05;;;18.14;53.43
58785;BME280;44557;51.862;19.378;2023-05-21T05:32:26;99821.11;;;18.22;53.27
58785;BME280;44557;51.862;19.378;2023-05-21T05:34:27;99820.92;;;18.28;52.81
58785;BME280;44557;51.862;19.378;2023-05-21T05:36:29;99821.27;;;18.31;52.49
58785;BME280;44557;51.862;19.378;2023-05-21T05:38:33;99821.63;;;18.37;52.41
58785;BME280;44557;51.862;19.378;2023-05-21T05:40:34;99823.41;;;18.47;52.08
58785;BME280;44557;51.862;19.378;2023-05-21T05:42:36;99821.36;;;18.50;51.21
58785;BME280;44557;51.862;19.378;2023-05-21T05:44:37;99824.56;;;18.53;50.64
58785;BME280;44557;51.862;19.378;2023-05-21T05:46:40;99819.73;;;18.59;50.78
58785;BME280;44557;51.862;19.378;2023-05-21T05:48:42;99820.70;;;18.74;50.62
58785;BME280;44557;51.862;19.378;2023-05-21T05:50:44;99824.59;;;18.70;49.91
58785;BME280;44557;51.862;19.378;2023-05-21T05:52:45;99820.63;;;18.88;50.31
58785;BME280;44557;51.862;19.378;2023-05-21T05:54:47;99817.33;;;18.97;49.83
58785;BME280;44557;51.862;19.378;2023-05-21T05:56:49;99819.12;;;19.04;50.99
58785;BME280;44557;51.862;19.378;2023-05-21T05:58:50;99820.36;;;19.12;51.10
58785;BME280;44557;51.862;19.378;2023-05-21T06:00:52;99819.46;;;19.27;51.57
58785;BME280;44557;51.862;19.378;2023-05-21T06:02:54;99819.77;;;19.40;52.87
58785;BME280;44557;51.862;19.378;2023-05-21T06:04:56;99821.07;;;19.43;52.57
58785;BME280;44557;51.862;19.378;2023-05-21T06:06:58;99812.31;;;19.54;52.49
58785;BME280;44557;51.862;19.378;2023-05-21T06:09:00;99811.39;;;19.67;52.41
58785;BME280;44557;51.862;19.378;2023-05-21T06:11:02;99814.73;;;19.59;50.60
58785;BME280;44557;51.862;19.378;2023-05-21T06:13:04;99814.58;;;19.66;51.16
58785;BME280;44557;51.862;19.378;2023-05-21T06:15:06;99814.44;;;19.73;50.24
58785;BME280;44557;51.862;19.378;2023-05-21T06:17:08;99809.66;;;19.80;50.69
58785;BME280;44557;51.862;19.378;2023-05-21T06:19:09;99809.82;;;19.85;51.08
58785;BME280;44557;51.862;19.378;2023-05-21T06:21:11;99810.72;;;20.04;50.61
58785;BME280;44557;51.862;19.378;2023-05-21T06:23:12;99809.60;;;20.01;48.60
58785;BME280;44557;51.862;19.378;2023-05-21T06:25:14;99812.80;;;20.06;48.41
58785;BME280;44557;51.862;19.378;2023-05-21T06:27:16;99809.83;;;20.07;47.87
58785;BME280;44557;51.862;19.378;2023-05-21T06:29:18;99812.25;;;20.24;47.87
58785;BME280;44557;51.862;19.378;2023-05-21T06:31:19;99814.59;;;20.31;47.88
58785;BME280;44557;51.862;19.378;2023-05-21T06:33:22;99809.30;;;20.39;48.03
58785;BME280;44557;51.862;19.378;2023-05-21T06:35:24;99810.66;;;20.49;47.75
58785;BME280;44557;51.862;19.378;2023-05-21T06:37:25;99810.86;;;20.66;47.93
58785;BME280;44557;51.862;19.378;2023-05-21T06:39:27;99810.14;;;20.68;47.81
58785;BME280;44557;51.862;19.378;2023-05-21T06:41:28;99810.27;;;20.77;47.49
58785;BME280;44557;51.862;19.378;2023-05-21T06:43:30;99810.67;;;20.78;46.75
58785;BME280;44557;51.862;19.378;2023-05-21T06:45:31;99812.59;;;20.80;46.24
58785;BME280;44557;51.862;19.378;2023-05-21T06:47:33;99815.95;;;20.78;46.51
58785;BME280;44557;51.862;19.378;2023-05-21T06:49:35;99813.72;;;20.76;45.88
58785;BME280;44557;51.862;19.378;2023-05-21T06:51:36;99813.85;;;20.86;45.99
58785;BME280;44557;51.862;19.378;2023-05-21T06:53:38;99813.35;;;21.00;45.71
58785;BME280;44557;51.862;19.378;2023-05-21T06:55:39;99814.81;;;20.87;45.48
58785;BME280;44557;51.862;19.378;2023-05-21T06:57:41;99816.58;;;20.86;44.98
58785;BME280;44557;51.862;19.378;2023-05-21T06:59:44;99814.66;;;20.83;44.54
58785;BME280;44557;51.862;19.378;2023-05-21T07:01:45;99813.77;;;20.90;44.83
58785;BME280;44557;51.862;19.378;2023-05-21T07:03:47;99811.03;;;20.97;45.26
58785;BME280;44557;51.862;19.378;2023-05-21T07:05:49;99809.49;;;21.08;45.37
58785;BME280;44557;51.862;19.378;2023-05-21T07:07:50;99813.17;;;21.05;44.58
58785;BME280;44557;51.862;19.378;2023-05-21T07:09:52;99812.23;;;21.03;45.38
58785;BME280;44557;51.862;19.378;2023-05-21T07:11:54;99806.02;;;21.20;46.55
58785;BME280;44557;51.862;19.378;2023-05-21T07:13:57;99804.73;;;21.19;46.84
58785;BME280;44557;51.862;19.378;2023-05-21T07:16:00;99805.81;;;21.26;46.84
58785;BME280;44557;51.862;19.378;2023-05-21T07:18:02;99804.06;;;21.43;46.39
58785;BME280;44557;51.862;19.378;2023-05-21T07:20:04;99801.38;;;21.33;44.94
58785;BME280;44557;51.862;19.378;2023-05-21T07:22:10;99807.50;;;21.41;45.79
58785;BME280;44557;51.862;19.378;2023-05-21T07:24:15;99807.11;;;21.54;46.30
58785;BME280;44557;51.862;19.378;2023-05-21T07:26:16;99805.13;;;21.64;45.83
58785;BME280;44557;51.862;19.378;2023-05-21T07:28:18;99807.80;;;21.60;44.87
58785;BME280;44557;51.862;19.378;2023-05-21T07:30:20;99803.13;;;21.81;45.01
58785;BME280;44557;51.862;19.378;2023-05-21T07:32:22;99805.09;;;21.88;44.10
58785;BME280;44557;51.862;19.378;2023-05-21T07:34:24;99802.27;;;21.90;43.47
58785;BME280;44557;51.862;19.378;2023-05-21T07:36:26;99805.58;;;22.18;43.96
58785;BME280;44557;51.862;19.378;2023-05-21T07:38:28;99803.64;;;22.11;44.26
58785;BME280;44557;51.862;19.378;2023-05-21T07:40:29;99801.87;;;22.21;44.92
58785;BME280;44557;51.862;19.378;2023-05-21T07:42:31;99803.56;;;22.29;44.64
58785;BME280;44557;51.862;19.378;2023-05-21T07:44:32;99802.30;;;22.26;45.22
58785;BME280;44557;51.862;19.378;2023-05-21T07:46:34;99798.00;;;22.34;44.71
58785;BME280;44557;51.862;19.378;2023-05-21T07:48:36;99797.59;;;22.41;44.10
58785;BME280;44557;51.862;19.378;2023-05-21T07:50:38;99796.23;;;22.67;44.36
58785;BME280;44557;51.862;19.378;2023-05-21T07:52:39;99797.48;;;22.65;44.14
58785;BME280;44557;51.862;19.378;2023-05-21T07:54:41;99801.81;;;22.46;43.57
58785;BME280;44557;51.862;19.378;2023-05-21T07:56:42;99799.91;;;22.53;43.73
58785;BME280;44557;51.862;19.378;2023-05-21T07:58:44;99799.73;;;22.44;42.33
58785;BME280;44557;51.862;19.378;2023-05-21T08:00:46;99799.63;;;22.47;42.35
58785;BME280;44557;51.862;19.378;2023-05-21T08:02:48;99803.21;;;22.59;42.79
58785;BME280;44557;51.862;19.378;2023-05-21T08:04:50;99799.80;;;22.72;41.87
58785;BME280;44557;51.862;19.378;2023-05-21T08:06:52;99802.21;;;22.86;41.12
58785;BME280;44557;51.862;19.378;2023-05-21T08:08:54;99804.21;;;22.65;40.55
58785;BME280;44557;51.862;19.378;2023-05-21T08:10:55;99802.73;;;22.51;40.01
58785;BME280;44557;51.862;19.378;2023-05-21T08:12:57;99799.35;;;22.61;40.58
58785;BME280;44557;51.862;19.378;2023-05-21T08:14:59;99802.59;;;22.67;40.75
58785;BME280;44557;51.862;19.378;2023-05-21T08:17:00;99801.20;;;22.59;40.38
58785;BME280;44557;51.862;19.378;2023-05-21T08:19:02;99797.38;;;22.66;39.87
58785;BME280;44557;51.862;19.378;2023-05-21T08:21:04;99792.69;;;22.91;40.22
58785;BME280;44557;51.862;19.378;2023-05-21T08:23:05;99799.14;;;23.03;40.70
58785;BME280;44557;51.862;19.378;2023-05-21T08:25:07;99800.30;;;22.79;41.48
58785;BME280;44557;51.862;19.378;2023-05-21T08:27:09;99799.52;;;23.18;42.98
58785;BME280;44557;51.862;19.378;2023-05-21T08:29:11;99795.55;;;23.46;41.29
58785;BME280;44557;51.862;19.378;2023-05-21T08:31:13;99799.72;;;23.15;40.29
58785;BME280;44557;51.862;19.378;2023-05-21T08:33:14;99801.05;;;22.98;41.35
58785;BME280;44557;51.862;19.378;2023-05-21T08:35:16;99799.92;;;23.32;42.50
58785;BME280;44557;51.862;19.378;2023-05-21T08:37:20;99799.02;;;23.13;41.43
58785;BME280;44557;51.862;19.378;2023-05-21T08:39:22;99790.83;;;23.25;41.37
58785;BME280;44557;51.862;19.378;2023-05-21T08:41:23;99788.65;;;23.26;41.15
58785;BME280;44557;51.862;19.378;2023-05-21T08:43:27;99785.98;;;23.35;40.55
58785;BME280;44557;51.862;19.378;2023-05-21T08:45:33;99788.30;;;23.29;40.86
58785;BME280;44557;51.862;19.378;2023-05-21T08:47:42;99791.04;;;22.96;40.38
58785;BME280;44557;51.862;19.378;2023-05-21T08:49:45;99785.50;;;22.66;40.57
58785;BME280;44557;51.862;19.378;2023-05-21T08:51:48;99785.55;;;22.98;41.10
58785;BME280;44557;51.862;19.378;2023-05-21T08:53:50;99781.21;;;23.25;40.34
58785;BME280;44557;51.862;19.378;2023-05-21T08:55:53;99781.84;;;23.45;41.17
58785;BME280;44557;51.862;19.378;2023-05-21T08:57:56;99778.53;;;23.40;40.16
58785;BME280;44557;51.862;19.378;2023-05-21T08:59:58;99785.73;;;23.29;40.72
58785;BME280;44557;51.862;19.378;2023-05-21T09:02:00;99786.00;;;23.07;40.17
58785;BME280;44557;51.862;19.378;2023-05-21T09:04:02;99786.23;;;22.94;40.26
58785;BME280;44557;51.862;19.378;2023-05-21T09:06:06;99784.50;;;22.91;40.29
58785;BME280;44557;51.862;19.378;2023-05-21T09:08:16;99783.67;;;23.26;40.66
58785;BME280;44557;51.862;19.378;2023-05-21T09:10:23;99777.98;;;23.32;40.28
58785;BME280;44557;51.862;19.378;2023-05-21T09:12:27;99785.45;;;23.61;40.76
58785;BME280;44557;51.862;19.378;2023-05-21T09:14:29;99782.25;;;23.61;39.82
58785;BME280;44557;51.862;19.378;2023-05-21T09:16:32;99785.07;;;23.30;38.92
58785;BME280;44557;51.862;19.378;2023-05-21T09:18:33;99784.80;;;23.57;38.36
58785;BME280;44557;51.862;19.378;2023-05-21T09:20:35;99783.96;;;23.53;38.68
58785;BME280;44557;51.862;19.378;2023-05-21T09:22:43;99781.92;;;23.50;38.67
58785;BME280;44557;51.862;19.378;2023-05-21T09:24:45;99785.34;;;23.28;38.74
58785;BME280;44557;51.862;19.378;2023-05-21T09:26:48;99787.39;;;23.24;38.77
58785;BME280;44557;51.862;19.378;2023-05-21T09:28:51;99784.19;;;23.37;39.27
58785;BME280;44557;51.862;19.378;2023-05-21T09:30:52;99784.30;;;23.40;39.39
58785;BME280;44557;51.862;19.378;2023-05-21T09:32:58;99782.84;;;23.22;38.87
58785;BME280;44557;51.862;19.378;2023-05-21T09:35:08;99781.02;;;23.07;38.20
58785;BME280;44557;51.862;19.378;2023-05-21T09:37:10;99778.41;;;23.17;37.90
58785;BME280;44557;51.862;19.378;2023-05-21T09:39:26;99780.88;;;23.32;38.05
58785;BME280;44557;51.862;19.378;2023-05-21T09:41:32;99776.27;;;23.52;38.20
58785;BME280;44557;51.862;19.378;2023-05-21T09:43:35;99778.23;;;23.87;38.46
58785;BME280;44557;51.862;19.378;2023-05-21T09:45:37;99777.32;;;23.69;37.62
58785;BME280;44557;51.862;19.378;2023-05-21T09:47:51;99778.71;;;23.38;37.00
58785;BME280;44557;51.862;19.378;2023-05-21T09:49:57;99775.55;;;23.20;37.67
58785;BME280;44557;51.862;19.378;2023-05-21T09:51:59;99781.12;;;23.37;38.31
58785;BME280;44557;51.862;19.378;2023-05-21T09:54:02;99776.42;;;23.08;37.82
58785;BME280;44557;51.862;19.378;2023-05-21T09:56:04;99768.73;;;23.21;38.40
58785;BME280;44557;51.862;19.378;2023-05-21T09:58:05;99768.55;;;23.58;39.32
58785;BME280;44557;51.862;19.378;2023-05-21T10:00:09;99767.78;;;23.67;39.60
58785;BME280;44557;51.862;19.378;2023-05-21T10:02:21;99763.98;;;23.79;39.72
58785;BME280;44557;51.862;19.378;2023-05-21T10:04:24;99765.05;;;23.72;38.86
58785;BME280;44557;51.862;19.378;2023-05-21T10:06:27;99771.34;;;23.37;37.86
58785;BME280;44557;51.862;19.378;2023-05-21T10:08:31;99765.02;;;23.47;37.87
58785;BME280;44557;51.862;19.378;2023-05-21T10:10:37;99758.80;;;23.81;38.21
58785;BME280;44557;51.862;19.378;2023-05-21T10:12:43;99760.89;;;24.13;37.69
58785;BME280;44557;51.862;19.378;2023-05-21T10:14:59;99755.74;;;23.91;37.37
58785;BME280;44557;51.862;19.378;2023-05-21T10:17:03;99755.41;;;23.77;37.73
58785;BME280;44557;51.862;19.378;2023-05-21T10:19:07;99746.14;;;23.78;37.76
58785;BME280;44557;51.862;19.378;2023-05-21T10:21:12;99749.08;;;23.71;36.87
58785;BME280;44557;51.862;19.378;2023-05-21T10:23:14;99748.67;;;23.90;36.87
58785;BME280;44557;51.862;19.378;2023-05-21T10:25:17;99746.48;;;24.12;36.47
58785;BME280;44557;51.862;19.378;2023-05-21T10:27:19;99745.90;;;24.08;36.52
58785;BME280;44557;51.862;19.378;2023-05-21T10:29:23;99743.11;;;23.96;36.33
58785;BME280;44557;51.862;19.378;2023-05-21T10:31:26;99735.24;;;24.24;36.65
58785;BME280;44557;51.862;19.378;2023-05-21T10:33:30;99730.59;;;24.46;36.26
58785;BME280;44557;51.862;19.378;2023-05-21T10:35:36;99737.34;;;24.46;35.63
58785;BME280;44557;51.862;19.378;2023-05-21T10:37:38;99738.38;;;24.16;35.87
58785;BME280;44557;51.862;19.378;2023-05-21T10:39:43;99732.98;;;24.43;36.48
58785;BME280;44557;51.862;19.378;2023-05-21T10:41:54;99733.52;;;24.58;35.76